Time;durP1;ratioP1;P1;durP2;ratioP2;P2;SDS_P1;SDS_P2;PMS_P1;PMS_P2;Temp;Humidity;BMP_temperature;BMP_pressure;BME280_temperature;BME280_humidity;BME280_pressure;Samples;Min_cycle;Max_cycle;Signal;HPM_P1;HPM_P2
2022/03/24 00:00:37;;;;;;;47.15;29.90;;;7.20;99.90;;;;;;5021526;28;20098;-80
2022/03/24 00:03:03;;;;;;;48.40;29.80;;;7.20;99.90;;;;;;5022327;28;20049;-80
2022/03/24 00:05:30;;;;;;;51.45;30.92;;;7.10;99.90;;;;;;5030865;28;20498;-80
2022/03/24 00:07:55;;;;;;;49.80;31.13;;;7.10;99.90;;;;;;5019765;28;20596;-80
2022/03/24 00:10:21;;;;;;;53.70;30.92;;;7.00;99.90;;;;;;5030380;28;20048;-80
2022/03/24 00:12:47;;;;;;;47.60;30.88;;;7.00;99.90;;;;;;5027156;28;20121;-80
2022/03/24 00:15:12;;;;;;;53.33;32.58;;;6.90;99.90;;;;;;5021556;28;20076;-80
2022/03/24 00:17:38;;;;;;;50.72;31.70;;;6.90;99.90;;;;;;5022949;28;20805;-80
2022/03/24 00:20:05;;;;;;;46.80;29.90;;;6.80;99.90;;;;;;5043313;28;20068;-80
2022/03/24 00:22:30;;;;;;;50.88;31.00;;;6.80;99.90;;;;;;5030429;28;20056;-80
2022/03/24 00:24:56;;;;;;;49.85;31.33;;;6.80;99.90;;;;;;5021675;28;20084;-80
2022/03/24 00:27:22;;;;;;;49.10;31.02;;;6.80;99.90;;;;;;5016477;28;20152;-79
2022/03/24 00:29:47;;;;;;;55.53;32.85;;;6.70;99.90;;;;;;5032955;28;20721;-79
2022/03/24 00:32:13;;;;;;;52.13;32.10;;;6.60;99.90;;;;;;5023309;28;20047;-79
2022/03/24 00:34:40;;;;;;;51.58;31.50;;;6.60;99.90;;;;;;5024038;28;20086;-79
2022/03/24 00:37:09;;;;;;;52.85;32.30;;;6.60;99.90;;;;;;5029818;28;20044;-78
2022/03/24 00:39:35;;;;;;;51.20;31.55;;;6.50;99.90;;;;;;5018958;28;20053;-79
2022/03/24 00:42:02;;;;;;;50.72;33.05;;;6.50;99.90;;;;;;5026177;28;20041;-79
2022/03/24 00:44:28;;;;;;;50.83;30.13;;;6.50;99.90;;;;;;5029531;28;20855;-79
2022/03/24 00:46:55;;;;;;;49.15;31.60;;;6.50;99.90;;;;;;5024589;28;20044;-78
2022/03/24 00:49:21;;;;;;;53.60;32.95;;;6.50;99.90;;;;;;5022167;28;20048;-78
2022/03/24 00:51:48;;;;;;;48.72;30.75;;;6.40;99.90;;;;;;5020063;28;20045;-78
2022/03/24 00:54:16;;;;;;;52.10;31.58;;;6.40;99.90;;;;;;5021260;28;20716;-78
2022/03/24 00:56:42;;;;;;;54.03;33.85;;;6.40;99.90;;;;;;5032005;28;20049;-79
2022/03/24 00:59:08;;;;;;;53.60;32.78;;;6.40;99.90;;;;;;5030477;28;20045;-78
2022/03/24 01:01:34;;;;;;;52.45;32.47;;;6.40;99.90;;;;;;5018454;28;20061;-78
2022/03/24 01:04:00;;;;;;;51.85;32.85;;;6.40;99.90;;;;;;5020816;28;20705;-78
2022/03/24 01:06:26;;;;;;;51.38;31.95;;;6.60;99.90;;;;;;5020145;28;20049;-78
2022/03/24 01:08:52;;;;;;;51.53;32.60;;;6.40;99.90;;;;;;5027469;28;20262;-78
2022/03/24 01:11:18;;;;;;;54.67;32.60;;;6.30;99.90;;;;;;5035008;28;20082;-78
2022/03/24 01:13:44;;;;;;;49.03;31.60;;;6.30;99.90;;;;;;5038101;28;20813;-78
2022/03/24 01:16:10;;;;;;;49.78;31.52;;;6.30;99.90;;;;;;5027474;28;20045;-78
2022/03/24 01:18:37;;;;;;;50.03;30.73;;;6.30;99.90;;;;;;5026899;28;20134;-78
2022/03/24 01:21:04;;;;;;;51.22;31.67;;;6.30;99.90;;;;;;5038010;28;20067;-78
2022/03/24 01:23:30;;;;;;;48.08;30.95;;;6.20;99.90;;;;;;5028575;28;20808;-78
2022/03/24 01:25:59;;;;;;;54.35;33.15;;;6.20;99.90;;;;;;5024885;28;20575;-78
2022/03/24 01:28:26;;;;;;;53.20;32.80;;;6.20;99.90;;;;;;5024007;28;20569;-77
2022/03/24 01:30:51;;;;;;;52.85;32.03;;;6.30;99.90;;;;;;5035296;28;20044;-78
2022/03/24 01:33:17;;;;;;;54.10;31.17;;;6.10;99.90;;;;;;5034769;28;20680;-78
2022/03/24 01:35:44;;;;;;;50.13;30.92;;;6.10;99.90;;;;;;5033248;28;20655;-78
2022/03/24 01:38:10;;;;;;;51.63;32.17;;;6.10;99.90;;;;;;5032359;28;20060;-78
2022/03/24 01:40:36;;;;;;;57.03;32.70;;;6.10;99.90;;;;;;5036200;28;20472;-78
2022/03/24 01:43:02;;;;;;;51.85;32.55;;;6.00;99.90;;;;;;5029196;28;20059;-78
2022/03/24 01:45:27;;;;;;;53.95;33.40;;;6.00;99.90;;;;;;5028116;28;20045;-77
2022/03/24 01:47:53;;;;;;;54.53;32.67;;;6.00;99.90;;;;;;5025269;28;20851;-77
2022/03/24 01:50:19;;;;;;;55.95;34.05;;;6.00;99.90;;;;;;5031435;28;20044;-78
2022/03/24 01:52:45;;;;;;;51.50;32.28;;;5.90;99.90;;;;;;5036195;28;20049;-78
2022/03/24 01:55:13;;;;;;;54.60;32.22;;;5.90;99.90;;;;;;5032882;28;20049;-78
2022/03/24 01:57:40;;;;;;;52.13;33.30;;;5.90;99.90;;;;;;5028310;28;20049;-77
2022/03/24 02:00:07;;;;;;;56.58;33.05;;;5.80;99.90;;;;;;5033928;28;20048;-77
2022/03/24 02:02:33;;;;;;;57.78;34.53;;;5.80;99.90;;;;;;5034943;28;20052;-78
2022/03/24 02:04:59;;;;;;;60.65;35.45;;;5.80;99.90;;;;;;5025817;28;20041;-78
2022/03/24 02:07:25;;;;;;;59.53;34.45;;;5.80;99.90;;;;;;5035345;28;20048;-77
2022/03/24 02:09:53;;;;;;;56.15;35.42;;;5.70;99.90;;;;;;5038326;28;20444;-78
2022/03/24 02:12:19;;;;;;;52.25;31.75;;;5.70;99.90;;;;;;5031114;28;20366;-78
2022/03/24 02:14:44;;;;;;;52.20;32.50;;;6.30;99.90;;;;;;5035185;28;20080;-77
2022/03/24 02:17:10;;;;;;;51.00;30.73;;;5.60;99.90;;;;;;5033362;28;20609;-77
2022/03/24 02:19:36;;;;;;;51.35;33.00;;;5.50;99.90;;;;;;5033039;28;20409;-77
2022/03/24 02:22:07;;;;;;;49.58;31.90;;;5.40;99.90;;;;;;5037758;28;20045;-77
2022/03/24 02:24:37;;;;;;;58.30;35.33;;;5.40;99.90;;;;;;5031363;28;20135;-77
2022/03/24 02:27:03;;;;;;;61.90;37.22;;;5.40;99.90;;;;;;5023523;28;20036;-77
2022/03/24 02:29:29;;;;;;;59.13;35.38;;;5.30;99.90;;;;;;5026668;28;20045;-77
2022/03/24 02:31:55;;;;;;;56.10;35.17;;;5.30;99.90;;;;;;5030385;28;20055;-77
2022/03/24 02:34:38;;;;;;;59.25;34.53;;;5.30;99.90;;;;;;5028617;28;20091;-77
2022/03/24 02:37:18;;;;;;;63.47;36.10;;;5.20;99.90;;;;;;5031000;28;20148;-77
2022/03/24 02:39:49;;;;;;;58.00;35.20;;;5.20;99.90;;;;;;5031616;28;20055;-77
2022/03/24 02:42:20;;;;;;;56.25;33.53;;;5.20;99.90;;;;;;5032171;28;20571;-78
2022/03/24 02:44:47;;;;;;;59.75;34.33;;;5.20;99.90;;;;;;5032328;28;20080;-78
2022/03/24 02:47:14;;;;;;;59.03;34.78;;;5.20;99.90;;;;;;5036579;28;20037;-78
2022/03/24 02:49:41;;;;;;;62.13;37.03;;;5.10;99.90;;;;;;5033139;28;20131;-78
2022/03/24 02:52:08;;;;;;;59.38;36.42;;;5.10;99.90;;;;;;5031491;28;20148;-78
2022/03/24 02:54:34;;;;;;;61.47;36.60;;;5.20;99.90;;;;;;5031253;28;20082;-78
2022/03/24 02:57:00;;;;;;;61.22;35.88;;;5.20;99.90;;;;;;5030450;28;20584;-78
2022/03/24 02:59:26;;;;;;;61.60;37.97;;;5.10;99.90;;;;;;5032608;28;20039;-78
2022/03/24 03:02:00;;;;;;;62.03;37.95;;;5.10;99.90;;;;;;5030110;28;20049;-78
2022/03/24 03:04:27;;;;;;;60.78;36.95;;;5.10;99.90;;;;;;5033163;28;20051;-78
2022/03/24 03:06:54;;;;;;;56.58;34.10;;;5.10;99.90;;;;;;5031112;28;20048;-78
2022/03/24 03:09:21;;;;;;;58.30;34.58;;;5.10;99.90;;;;;;5028571;28;20178;-78
2022/03/24 03:11:48;;;;;;;59.45;34.25;;;5.10;99.90;;;;;;5026581;28;20226;-78
2022/03/24 03:14:15;;;;;;;55.60;32.85;;;5.00;99.90;;;;;;5026026;28;20714;-78
2022/03/24 03:16:44;;;;;;;52.10;31.15;;;5.00;99.90;;;;;;5034657;28;20658;-78
2022/03/24 03:19:17;;;;;;;55.28;32.58;;;5.00;99.90;;;;;;5050193;28;20705;-78
2022/03/24 03:21:42;;;;;;;54.30;31.27;;;5.00;99.90;;;;;;5032609;28;20152;-78
2022/03/24 03:24:10;;;;;;;49.40;31.55;;;5.00;99.90;;;;;;5030107;28;20829;-78
2022/03/24 03:26:37;;;;;;;52.60;32.38;;;4.90;99.90;;;;;;5025392;28;20064;-78
2022/03/24 03:29:04;;;;;;;51.72;32.15;;;4.90;99.90;;;;;;5032166;28;20495;-77
2022/03/24 03:31:29;;;;;;;55.33;31.08;;;4.90;99.90;;;;;;5034378;28;20053;-78
2022/03/24 03:33:55;;;;;;;58.83;32.83;;;4.90;99.90;;;;;;5029430;28;20071;-78
2022/03/24 03:36:22;;;;;;;51.63;31.63;;;4.90;99.90;;;;;;5025302;28;20487;-77
2022/03/24 03:38:48;;;;;;;57.63;32.65;;;4.90;99.90;;;;;;5025911;28;20136;-77
2022/03/24 03:41:16;;;;;;;48.22;30.15;;;4.90;99.90;;;;;;5028555;28;20049;-77
2022/03/24 03:43:44;;;;;;;58.45;32.40;;;4.80;99.90;;;;;;5029442;28;20136;-77
2022/03/24 03:46:11;;;;;;;55.80;32.72;;;4.80;99.90;;;;;;5030344;28;20531;-77
2022/03/24 03:48:38;;;;;;;55.40;33.47;;;5.10;99.90;;;;;;5030614;28;20045;-77
2022/03/24 03:51:05;;;;;;;51.72;31.92;;;4.80;99.90;;;;;;5030018;28;20045;-77
2022/03/24 03:53:30;;;;;;;60.25;34.67;;;4.70;99.90;;;;;;5026915;28;20498;-77
2022/03/24 03:55:56;;;;;;;56.22;33.85;;;4.70;99.90;;;;;;5028315;28;20049;-77
2022/03/24 03:58:22;;;;;;;56.55;33.15;;;4.70;99.90;;;;;;5027523;28;20068;-77
2022/03/24 04:00:55;;;;;;;60.03;34.65;;;4.70;99.90;;;;;;5025484;28;20705;-77
2022/03/24 04:03:26;;;;;;;57.28;34.97;;;4.60;99.90;;;;;;5032704;28;20555;-77
2022/03/24 04:05:53;;;;;;;55.80;33.30;;;4.60;99.90;;;;;;5031909;28;20051;-77
2022/03/24 04:08:20;;;;;;;56.10;33.78;;;4.70;99.90;;;;;;5022103;28;20766;-77
2022/03/24 04:10:48;;;;;;;55.78;33.60;;;4.70;99.90;;;;;;5024316;28;20052;-77
2022/03/24 04:13:14;;;;;;;55.70;33.45;;;4.60;99.90;;;;;;5024442;28;20081;-77
2022/03/24 04:15:39;;;;;;;58.53;34.28;;;4.60;99.90;;;;;;5023854;28;20159;-77
2022/03/24 04:18:09;;;;;;;59.20;35.28;;;4.60;99.90;;;;;;5032104;28;20061;-77
2022/03/24 04:20:36;;;;;;;60.20;32.33;;;4.60;99.90;;;;;;5029164;28;20120;-77
2022/03/24 04:23:03;;;;;;;60.38;34.65;;;4.60;99.90;;;;;;5025378;28;20154;-77
2022/03/24 04:25:29;;;;;;;61.47;34.42;;;4.50;99.90;;;;;;5027361;28;20048;-78
2022/03/24 04:27:55;;;;;;;60.65;35.30;;;4.50;99.90;;;;;;5023442;28;20102;-77
2022/03/24 04:30:21;;;;;;;61.08;35.40;;;4.40;99.90;;;;;;5029990;28;20091;-77
2022/03/24 04:32:48;;;;;;;56.90;33.28;;;4.40;99.90;;;;;;5023523;28;20041;-77
2022/03/24 04:35:15;;;;;;;56.80;34.88;;;4.40;99.90;;;;;;5020390;28;20564;-77
2022/03/24 04:37:42;;;;;;;57.53;34.00;;;4.30;99.90;;;;;;5020201;28;20049;-77
2022/03/24 04:40:10;;;;;;;58.53;33.88;;;4.30;99.90;;;;;;5018102;28;20045;-77
2022/03/24 04:42:36;;;;;;;56.47;33.75;;;4.20;99.90;;;;;;5018571;28;20376;-77
2022/03/24 04:45:02;;;;;;;56.47;32.92;;;4.20;99.90;;;;;;5023072;28;20041;-77
2022/03/24 04:47:28;;;;;;;60.20;33.50;;;4.10;99.90;;;;;;5028295;28;20101;-77
2022/03/24 04:49:53;;;;;;;60.22;32.80;;;4.10;99.90;;;;;;5024353;28;20057;-78
2022/03/24 04:52:19;;;;;;;56.75;34.05;;;4.10;99.90;;;;;;5022331;28;20045;-77
2022/03/24 04:54:45;;;;;;;62.50;35.22;;;4.00;99.90;;;;;;5030028;28;20104;-77
2022/03/24 04:57:12;;;;;;;60.05;34.78;;;4.00;99.90;;;;;;5019198;28;20583;-77
2022/03/24 04:59:38;;;;;;;59.95;35.05;;;4.00;99.90;;;;;;5026509;28;20092;-77
2022/03/24 05:02:04;;;;;;;59.83;36.33;;;4.70;99.90;;;;;;5025063;28;20053;-77
2022/03/24 05:04:30;;;;;;;55.20;33.78;;;4.00;99.90;;;;;;5024717;28;20163;-77
2022/03/24 05:06:55;;;;;;;62.97;35.25;;;3.90;99.90;;;;;;5025782;28;20132;-77
2022/03/24 05:09:21;;;;;;;60.78;35.92;;;3.90;99.90;;;;;;5018315;28;20053;-77
2022/03/24 05:11:46;;;;;;;65.30;36.47;;;4.00;99.90;;;;;;5020344;28;20081;-77
2022/03/24 05:14:12;;;;;;;60.45;34.58;;;3.80;99.90;;;;;;5028813;28;20045;-77
2022/03/24 05:16:38;;;;;;;58.97;35.75;;;3.80;99.90;;;;;;5020002;28;20046;-77
2022/03/24 05:19:05;;;;;;;63.25;36.38;;;3.80;99.90;;;;;;5026645;28;20122;-77
2022/03/24 05:21:32;;;;;;;62.03;36.05;;;3.80;99.90;;;;;;5024442;28;20045;-77
2022/03/24 05:23:59;;;;;;;58.35;34.95;;;3.80;99.90;;;;;;5027179;28;20671;-77
2022/03/24 05:26:25;;;;;;;60.63;35.47;;;3.80;99.90;;;;;;5019902;28;20136;-77
2022/03/24 05:28:51;;;;;;;61.90;34.70;;;3.80;99.90;;;;;;5017106;28;20845;-77
2022/03/24 05:31:17;;;;;;;59.40;33.92;;;3.80;99.90;;;;;;5023701;28;20041;-77
2022/03/24 05:33:43;;;;;;;58.42;33.88;;;3.80;99.90;;;;;;5027614;28;20698;-77
2022/03/24 05:36:09;;;;;;;63.80;34.65;;;3.80;99.90;;;;;;5023312;28;20034;-77
2022/03/24 05:38:35;;;;;;;65.88;36.38;;;4.20;99.90;;;;;;5025978;28;20068;-77
2022/03/24 05:41:01;;;;;;;61.60;35.83;;;3.80;99.90;;;;;;5030980;28;20033;-77
2022/03/24 05:43:27;;;;;;;59.72;34.55;;;3.80;99.90;;;;;;5022914;28;20088;-77
2022/03/24 05:45:53;;;;;;;58.90;35.13;;;3.80;99.90;;;;;;5022517;28;20056;-77
2022/03/24 05:48:18;;;;;;;61.33;36.20;;;3.90;99.90;;;;;;5030702;28;20048;-77
2022/03/24 05:50:44;;;;;;;63.38;36.45;;;3.90;99.90;;;;;;5035872;28;20122;-77
2022/03/24 05:53:10;;;;;;;61.60;34.83;;;3.90;99.90;;;;;;5031638;28;20049;-77
2022/03/24 05:55:38;;;;;;;60.85;35.05;;;3.90;99.90;;;;;;5033887;28;20045;-77
2022/03/24 05:58:04;;;;;;;59.10;34.08;;;3.90;99.90;;;;;;5031283;28;20378;-77
2022/03/24 06:00:31;;;;;;;62.17;35.50;;;3.90;99.90;;;;;;5032331;28;20049;-78
2022/03/24 06:02:57;;;;;;;65.00;36.97;;;3.90;99.90;;;;;;5032947;28;20400;-77
2022/03/24 06:05:23;;;;;;;58.28;33.95;;;3.90;99.90;;;;;;5029351;28;20040;-77
2022/03/24 06:07:49;;;;;;;64.30;34.45;;;4.00;99.90;;;;;;5030955;28;20778;-77
2022/03/24 06:10:15;;;;;;;64.82;36.35;;;4.00;99.90;;;;;;5034800;28;20536;-77
2022/03/24 06:12:41;;;;;;;63.47;36.60;;;4.00;99.90;;;;;;5027112;28;20057;-77
2022/03/24 06:15:07;;;;;;;66.05;36.42;;;4.00;99.90;;;;;;5036308;28;20053;-77
2022/03/24 06:17:34;;;;;;;62.75;35.45;;;4.00;99.90;;;;;;5039024;28;20051;-77
2022/03/24 06:20:01;;;;;;;67.55;37.88;;;4.20;99.90;;;;;;5037554;28;20481;-77
2022/03/24 06:22:28;;;;;;;64.78;35.92;;;4.10;99.90;;;;;;5036135;28;20047;-76
2022/03/24 06:24:54;;;;;;;64.22;36.85;;;4.10;99.90;;;;;;5040957;28;20082;-77
2022/03/24 06:27:20;;;;;;;63.70;36.75;;;4.20;99.90;;;;;;5030919;28;20761;-76
2022/03/24 06:29:47;;;;;;;63.90;37.40;;;4.20;99.90;;;;;;5037585;28;20048;-76
2022/03/24 06:32:13;;;;;;;67.53;38.20;;;4.20;99.90;;;;;;5035286;28;20090;-77
2022/03/24 06:34:39;;;;;;;72.50;40.72;;;4.30;99.90;;;;;;5036948;28;20045;-76
2022/03/24 06:37:05;;;;;;;74.68;39.95;;;4.30;99.90;;;;;;5039226;28;20130;-77
2022/03/24 06:39:31;;;;;;;75.50;41.08;;;4.30;99.90;;;;;;5038280;28;20165;-77
2022/03/24 06:41:56;;;;;;;63.50;37.80;;;4.40;99.90;;;;;;5040581;28;20033;-77
2022/03/24 06:44:22;;;;;;;69.72;39.80;;;4.40;99.90;;;;;;5038607;28;20145;-77
2022/03/24 06:46:48;;;;;;;70.75;40.33;;;4.50;99.90;;;;;;5036757;28;20088;-77
2022/03/24 06:49:15;;;;;;;73.38;41.30;;;4.50;99.90;;;;;;5039687;28;20041;-78
2022/03/24 06:51:41;;;;;;;73.60;41.55;;;4.60;99.90;;;;;;5037564;28;20163;-76
2022/03/24 06:54:06;;;;;;;65.55;39.10;;;4.70;99.90;;;;;;5038021;28;20056;-76
2022/03/24 06:56:33;;;;;;;66.28;39.25;;;4.70;99.90;;;;;;5029992;28;20120;-75
2022/03/24 06:58:58;;;;;;;65.25;38.70;;;4.80;99.90;;;;;;5032494;28;20129;-75
2022/03/24 07:01:24;;;;;;;72.20;41.50;;;4.80;99.90;;;;;;5029987;28;20049;-75
2022/03/24 07:03:50;;;;;;;65.68;37.85;;;4.90;99.90;;;;;;5034107;28;20448;-75
2022/03/24 07:06:16;;;;;;;70.55;40.65;;;5.00;99.90;;;;;;5033113;28;20044;-76
2022/03/24 07:08:41;;;;;;;69.50;41.58;;;5.10;99.90;;;;;;5043535;28;20053;-76
2022/03/24 07:11:07;;;;;;;71.88;41.38;;;5.20;99.90;;;;;;5022821;28;20148;-77
2022/03/24 07:13:33;;;;;;;82.82;45.20;;;5.20;99.90;;;;;;5034963;28;20077;-74
2022/03/24 07:15:59;;;;;;;76.18;43.03;;;5.30;99.90;;;;;;5029649;28;20081;-76
2022/03/24 07:18:24;;;;;;;82.70;45.25;;;5.40;99.90;;;;;;5024859;28;20558;-74
2022/03/24 07:20:50;;;;;;;77.30;45.15;;;5.40;99.90;;;;;;5031299;28;20057;-74
2022/03/24 07:23:17;;;;;;;79.57;45.30;;;5.50;99.90;;;;;;5031627;28;20584;-77
2022/03/24 07:25:43;;;;;;;81.20;45.00;;;5.60;99.90;;;;;;5040100;28;20052;-77
2022/03/24 07:28:11;;;;;;;85.13;45.25;;;5.30;99.90;;;;;;5034317;28;20141;-77
2022/03/24 07:30:37;;;;;;;89.28;48.75;;;5.80;99.90;;;;;;5038195;28;20084;-77
2022/03/24 07:33:03;;;;;;;87.60;49.33;;;5.90;99.90;;;;;;5038986;28;20045;-77
2022/03/24 07:35:31;;;;;;;90.03;50.75;;;6.00;99.90;;;;;;5037804;28;20052;-76
2022/03/24 07:37:57;;;;;;;84.85;49.35;;;6.10;99.90;;;;;;5038585;28;20941;-78
2022/03/24 07:40:23;;;;;;;84.68;47.95;;;6.20;99.90;;;;;;5040012;28;20049;-78
2022/03/24 07:42:52;;;;;;;88.95;50.05;;;6.20;99.90;;;;;;5037917;28;20137;-78
2022/03/24 07:45:18;;;;;;;90.07;51.13;;;6.40;99.90;;;;;;5040029;28;20063;-78
2022/03/24 07:48:07;;;;;;;82.18;48.90;;;6.50;99.90;;;;;;5038780;28;20048;-79
2022/03/24 07:50:34;;;;;;;76.47;47.90;;;6.70;99.90;;;;;;5039110;28;20572;-78
2022/03/24 07:53:16;;;;;;;84.22;47.55;;;6.80;99.90;;;;;;5019554;28;20089;-78
2022/03/24 07:55:46;;;;;;;71.30;42.70;;;7.00;99.90;;;;;;5018795;28;20046;-78
2022/03/24 07:58:13;;;;;;;83.05;46.38;;;7.10;99.90;;;;;;5037752;28;20220;-78
2022/03/24 08:00:39;;;;;;;70.95;42.83;;;7.20;99.90;;;;;;5039896;28;20045;-78
2022/03/24 08:03:10;;;;;;;68.43;41.72;;;7.30;99.90;;;;;;5039834;28;20737;-75
2022/03/24 08:05:36;;;;;;;71.90;43.50;;;7.50;99.90;;;;;;5037391;28;20045;-77
2022/03/24 08:08:04;;;;;;;69.15;41.60;;;7.60;99.90;;;;;;5037775;28;20051;-75
2022/03/24 08:10:30;;;;;;;70.38;42.70;;;7.70;99.90;;;;;;5038469;28;20752;-75
2022/03/24 08:12:55;;;;;;;68.63;42.83;;;7.80;99.90;;;;;;5037623;28;20128;-75
2022/03/24 08:15:21;;;;;;;72.07;44.00;;;8.00;99.90;;;;;;5037883;28;20048;-75
2022/03/24 08:17:47;;;;;;;73.07;42.28;;;8.10;99.90;;;;;;5039626;28;20773;-75
2022/03/24 08:20:12;;;;;;;72.13;42.80;;;8.20;99.90;;;;;;5038489;28;20048;-75
2022/03/24 08:22:38;;;;;;;63.75;40.58;;;8.30;99.90;;;;;;5039751;28;20076;-75
2022/03/24 08:25:08;;;;;;;71.93;41.42;;;8.40;99.90;;;;;;5037257;28;20053;-75
2022/03/24 08:27:35;;;;;;;68.70;39.03;;;8.50;99.90;;;;;;5033272;28;20143;-75
2022/03/24 08:30:01;;;;;;;66.35;39.92;;;8.60;99.90;;;;;;5037236;28;20135;-75
2022/03/24 08:32:26;;;;;;;71.35;40.38;;;8.80;99.90;;;;;;5038874;28;20681;-75
2022/03/24 08:34:52;;;;;;;72.38;40.85;;;8.90;99.90;;;;;;5039144;28;20049;-75
2022/03/24 08:37:17;;;;;;;54.63;34.30;;;9.00;99.90;;;;;;5037326;28;20048;-75
2022/03/24 08:39:44;;;;;;;53.05;31.65;;;9.20;99.90;;;;;;5038614;28;20044;-75
2022/03/24 08:42:10;;;;;;;57.90;31.58;;;9.30;99.90;;;;;;5037807;28;20637;-75
2022/03/24 08:44:35;;;;;;;51.45;30.88;;;9.50;99.90;;;;;;5037226;28;20041;-75
2022/03/24 08:47:01;;;;;;;54.13;31.52;;;9.60;99.90;;;;;;5036989;28;20045;-75
2022/03/24 08:49:27;;;;;;;57.80;32.78;;;9.70;99.90;;;;;;5039115;28;20044;-75
2022/03/24 08:51:53;;;;;;;55.05;33.47;;;9.80;99.90;;;;;;5037578;28;20037;-75
2022/03/24 08:54:18;;;;;;;57.33;32.95;;;9.80;99.90;;;;;;5037862;28;20117;-75
2022/03/24 08:56:44;;;;;;;64.45;36.90;;;10.00;99.90;;;;;;5039334;28;20041;-75
2022/03/24 08:59:10;;;;;;;57.42;34.38;;;10.10;99.90;;;;;;5039307;28;20041;-80
2022/03/24 09:01:37;;;;;;;57.65;33.53;;;10.20;99.90;;;;;;5038948;28;20575;-77
2022/03/24 09:04:02;;;;;;;59.30;34.63;;;10.30;99.90;;;;;;5058455;28;20065;-78
2022/03/24 09:06:28;;;;;;;56.22;33.22;;;10.50;99.90;;;;;;5040925;28;20495;-77
2022/03/24 09:08:54;;;;;;;61.47;34.58;;;10.70;99.90;;;;;;5047902;28;20078;-77
2022/03/24 09:11:20;;;;;;;55.58;33.15;;;10.80;99.90;;;;;;5051673;28;20056;-77
2022/03/24 09:13:46;;;;;;;52.30;32.80;;;10.90;99.90;;;;;;5056191;28;20036;-78
2022/03/24 09:16:12;;;;;;;56.83;33.03;;;11.00;99.90;;;;;;5041114;28;20056;-77
2022/03/24 09:18:37;;;;;;;53.85;32.15;;;11.20;99.90;;;;;;5050642;28;20041;-75
2022/03/24 09:21:03;;;;;;;53.95;32.70;;;11.50;99.90;;;;;;5039965;28;20057;-77
2022/03/24 09:23:29;;;;;;;57.53;32.90;;;11.50;99.90;;;;;;5038947;28;20492;-77
2022/03/24 09:25:56;;;;;;;56.00;33.22;;;11.70;99.90;;;;;;5037555;28;20045;-78
2022/03/24 09:28:24;;;;;;;51.15;32.78;;;11.80;99.90;;;;;;5031956;28;20044;-77
2022/03/24 09:30:50;;;;;;;55.20;33.05;;;12.00;99.90;;;;;;5036894;28;20041;-77
2022/03/24 09:33:18;;;;;;;54.63;32.85;;;12.20;99.90;;;;;;5040449;28;20056;-77
2022/03/24 09:35:43;;;;;;;54.67;32.42;;;12.30;99.90;;;;;;5042191;28;20049;-77
2022/03/24 09:38:09;;;;;;;52.45;32.33;;;12.50;99.90;;;;;;5041087;28;20049;-78
2022/03/24 09:40:35;;;;;;;55.60;33.45;;;12.70;99.90;;;;;;5040983;28;20055;-78
2022/03/24 09:43:02;;;;;;;49.55;33.45;;;12.90;99.90;;;;;;5040675;28;20045;-78
2022/03/24 09:45:28;;;;;;;54.97;35.95;;;13.10;99.90;;;;;;5040569;28;20056;-78
2022/03/24 09:47:54;;;;;;;54.45;34.65;;;13.20;99.90;;;;;;5040927;28;20133;-78
2022/03/24 09:50:22;;;;;;;56.92;34.70;;;13.40;99.90;;;;;;5041056;28;20049;-78
2022/03/24 09:52:48;;;;;;;54.25;34.25;;;13.50;99.90;;;;;;5040714;28;20053;-78
2022/03/24 09:55:13;;;;;;;49.22;32.30;;;13.60;99.90;;;;;;5042100;28;20130;-78
2022/03/24 09:57:43;;;;;;;53.65;34.58;;;13.70;99.90;;;;;;5039951;28;20049;-78
2022/03/24 10:00:10;;;;;;;53.03;32.80;;;13.90;99.90;;;;;;5042511;28;20041;-78
2022/03/24 10:02:36;;;;;;;50.88;33.30;;;14.10;99.90;;;;;;5046742;28;20051;-77
2022/03/24 10:05:03;;;;;;;57.83;32.65;;;14.20;99.90;;;;;;5048968;28;20072;-77
2022/03/24 10:07:43;;;;;;;51.22;33.80;;;14.30;99.90;;;;;;5056227;28;20334;-76
2022/03/24 10:10:21;;;;;;;51.72;33.42;;;14.40;99.90;;;;;;5048821;28;20059;-75
2022/03/24 10:12:46;;;;;;;50.92;34.70;;;14.50;99.90;;;;;;5041889;28;20499;-76
2022/03/24 10:15:17;;;;;;;50.85;32.05;;;14.70;99.90;;;;;;5052290;28;20134;-74
2022/03/24 10:17:55;;;;;;;49.53;32.95;;;14.80;99.90;;;;;;5050154;28;20040;-73
2022/03/24 10:20:21;;;;;;;;;;;14.90;99.90;;;;;;5040323;28;20575;-72
2022/03/24 10:22:58;;;;;;;55.63;33.40;;;15.00;99.90;;;;;;5040272;28;19975;-73
2022/03/24 10:25:33;;;;;;;51.30;34.03;;;15.10;99.90;;;;;;5040051;28;20053;-74
2022/03/24 10:28:32;;;;;;;56.83;33.60;;;15.30;99.90;;;;;;5036606;28;20773;-74
2022/03/24 10:30:59;;;;;;;52.20;34.35;;;15.40;99.30;;;;;;5035731;28;20057;-74
2022/03/24 10:33:26;;;;;;;50.00;32.90;;;15.50;99.90;;;;;;5040977;28;20041;-74
2022/03/24 10:36:10;;;;;;;53.75;33.58;;;15.60;99.90;;;;;;5040988;28;20131;-74
2022/03/24 10:38:46;;;;;;;;;;;15.80;99.00;;;;;;5039508;28;20053;-75
2022/03/24 10:41:16;;;;;;;46.70;32.55;;;15.90;97.40;;;;;;5039859;28;19932;-74
2022/03/24 10:43:42;;;;;;;58.58;33.33;;;16.00;97.60;;;;;;5040726;28;20049;-75
2022/03/24 10:46:39;;;;;;;53.90;33.80;;;16.10;96.10;;;;;;5040375;28;20127;-75
2022/03/24 10:49:23;;;;;;;50.33;34.13;;;16.40;94.60;;;;;;5040424;28;20067;-75
2022/03/24 10:51:50;;;;;;;59.97;33.80;;;16.40;95.70;;;;;;5039206;28;20626;-75
2022/03/24 10:54:28;;;;;;;54.55;35.70;;;16.50;95.30;;;;;;5038176;28;20049;-74
2022/03/24 10:57:06;;;;;;;53.80;31.67;;;16.60;93.60;;;;;;5039439;28;20151;-74
2022/03/24 10:59:36;;;;;;;54.75;33.65;;;16.70;93.60;;;;;;5038320;28;20777;-74
2022/03/24 11:02:04;;;;;;;50.92;31.10;;;16.80;93.90;;;;;;5038463;28;20052;-74
2022/03/24 11:04:30;;;;;;;50.33;33.40;;;16.90;92.70;;;;;;5022572;28;20102;-74
2022/03/24 11:06:56;;;;;;;52.35;34.47;;;17.00;92.20;;;;;;5039135;28;20048;-74
2022/03/24 11:09:23;;;;;;;49.33;32.85;;;17.10;92.00;;;;;;5040778;28;20044;-74
2022/03/24 11:12:27;;;;;;;53.60;34.85;;;17.20;92.40;;;;;;5039288;28;20057;-74
2022/03/24 11:14:59;;;;;;;51.95;33.63;;;17.30;91.40;;;;;;5038550;28;20052;-75
2022/03/24 11:17:26;;;;;;;42.28;31.20;;;17.50;91.80;;;;;;5019209;28;20111;-75
2022/03/24 11:20:05;;;;;;;46.28;30.85;;;17.60;91.70;;;;;;5036613;28;20044;-74
2022/03/24 11:22:54;;;;;;;51.33;34.65;;;17.60;90.60;;;;;;5038172;28;20217;-74
2022/03/24 11:25:21;;;;;;;46.45;32.95;;;17.70;86.30;;;;;;5038312;28;20151;-75
2022/03/24 11:27:48;;;;;;;54.00;34.40;;;17.70;90.70;;;;;;5025292;28;20056;-75
2022/03/24 11:30:16;;;;;;;50.50;31.25;;;17.80;91.10;;;;;;5025283;28;20048;-75
2022/03/24 11:32:44;;;;;;;49.72;33.15;;;17.90;89.20;;;;;;5038792;28;20049;-75
2022/03/24 11:35:11;;;;;;;46.17;33.22;;;18.00;87.40;;;;;;5039110;28;20063;-74
2022/03/24 11:37:37;;;;;;;47.95;32.85;;;18.00;87.80;;;;;;5038661;28;20037;-75
2022/03/24 11:40:11;;;;;;;50.95;30.48;;;18.10;85.90;;;;;;5040528;28;20055;-75
2022/03/24 11:42:47;;;;;;;44.35;31.13;;;18.20;85.60;;;;;;5039022;28;20499;-75
2022/03/24 11:45:21;;;;;;;45.33;31.92;;;18.30;83.90;;;;;;5038463;28;20071;-75
2022/03/24 11:48:09;;;;;;;45.97;32.05;;;18.40;85.20;;;;;;5038553;28;20052;-75
2022/03/24 11:50:45;;;;;;;49.25;31.40;;;18.60;86.70;;;;;;5038835;28;20087;-75
2022/03/24 11:53:23;;;;;;;42.75;28.42;;;18.70;82.70;;;;;;5057311;28;20106;-75
2022/03/24 11:56:04;;;;;;;45.22;29.45;;;18.70;79.00;;;;;;5053679;28;20045;-75
2022/03/24 11:58:39;;;;;;;44.53;29.15;;;18.70;80.60;;;;;;5039520;28;20128;-75
2022/03/24 12:01:24;;;;;;;52.70;32.03;;;18.90;81.40;;;;;;5037850;28;20052;-75
2022/03/24 12:04:14;;;;;;;44.25;32.65;;;19.00;79.50;;;;;;5019468;28;20115;-75
2022/03/24 12:06:46;;;;;;;47.92;32.40;;;19.00;81.90;;;;;;5037794;28;20044;-75
2022/03/24 12:09:13;;;;;;;50.15;30.80;;;19.00;80.10;;;;;;5038158;28;20057;-77
2022/03/24 12:11:47;;;;;;;52.70;32.25;;;19.00;80.20;;;;;;5039231;28;20110;-75
2022/03/24 12:14:40;;;;;;;41.40;28.73;;;19.10;79.30;;;;;;5023423;28;20130;-77
2022/03/24 12:17:19;;;;;;;41.03;27.20;;;19.10;77.10;;;;;;5014053;28;20095;-76
2022/03/24 12:19:49;;;;;;;42.83;27.15;;;19.20;74.00;;;;;;5022649;28;20145;-76
2022/03/24 12:22:30;;;;;;;41.03;26.85;;;19.20;75.70;;;;;;5041130;28;20064;-76
2022/03/24 12:25:00;;;;;;;42.97;25.95;;;19.30;73.40;;;;;;5037188;28;20895;-76
2022/03/24 12:28:01;;;;;;;42.63;28.25;;;19.40;75.00;;;;;;5034672;28;20179;-76
2022/03/24 12:30:39;;;;;;;43.70;27.38;;;19.50;74.00;;;;;;5040163;28;20049;-76
2022/03/24 12:33:17;;;;;;;43.10;28.08;;;19.60;75.30;;;;;;5039556;28;20052;-76
2022/03/24 12:35:51;;;;;;;39.88;25.63;;;19.60;71.20;;;;;;5042808;28;20044;-76
2022/03/24 12:38:32;;;;;;;42.83;27.48;;;19.70;73.20;;;;;;5047161;28;20723;-76
2022/03/24 12:41:09;;;;;;;41.65;27.67;;;19.80;73.40;;;;;;5046199;28;20052;-76